createdAt,value
2023-05-08T00:00:47.749Z,79.45
2023-05-08T00:03:18.280Z,79.64
2023-05-08T00:05:46.356Z,80.20
2023-05-08T00:08:14.403Z,80.71
2023-05-08T00:10:42.375Z,81.37
2023-05-08T00:13:10.471Z,81.47
2023-05-08T00:15:38.396Z,81.69
2023-05-08T00:18:06.436Z,81.24
2023-05-08T00:20:34.691Z,81.62
2023-05-08T00:23:02.618Z,81.77
2023-05-08T00:25:32.150Z,81.70
2023-05-08T00:28:01.039Z,81.67
2023-05-08T00:30:29.206Z,81.50
2023-05-08T00:32:57.272Z,81.49
2023-05-08T00:35:25.656Z,81.36
2023-05-08T00:37:53.579Z,81.66
2023-05-08T00:40:21.846Z,81.50
2023-05-08T00:42:49.969Z,81.44
2023-05-08T00:45:18.143Z,81.20
2023-05-08T00:47:46.247Z,81.09
2023-05-08T00:50:14.934Z,81.00
2023-05-08T00:52:43.520Z,80.95
2023-05-08T00:55:11.464Z,80.85
2023-05-08T00:57:39.519Z,80.91
2023-05-08T01:00:08.466Z,80.80
2023-05-08T01:02:36.715Z,80.63
2023-05-08T01:05:06.216Z,80.70
2023-05-08T01:07:34.156Z,80.65
2023-05-08T01:10:02.956Z,80.63
2023-05-08T01:12:36.052Z,80.98
2023-05-08T01:15:17.127Z,81.37
2023-05-08T01:18:05.569Z,82.81
2023-05-08T01:20:47.166Z,83.69
2023-05-08T01:23:43.094Z,84.14
2023-05-08T01:26:34.710Z,84.48
2023-05-08T01:29:20.499Z,84.50
2023-05-08T01:32:19.939Z,84.56
2023-05-08T01:35:09.275Z,84.25
2023-05-08T01:37:52.316Z,84.16
2023-05-08T01:40:32.045Z,84.09
2023-05-08T01:43:25.821Z,83.82
2023-05-08T01:45:56.011Z,83.44
2023-05-08T01:48:34.971Z,83.30
2023-05-08T01:51:12.009Z,83.31
2023-05-08T01:53:55.900Z,83.30
2023-05-08T01:56:28.732Z,83.29
2023-05-08T01:58:59.214Z,83.08
2023-05-08T02:01:29.537Z,83.19
2023-05-08T02:04:00.120Z,83.15
2023-05-08T02:06:31.401Z,82.97
2023-05-08T02:09:01.608Z,82.77
2023-05-08T02:11:33.534Z,82.64
2023-05-08T02:14:02.885Z,82.32
2023-05-08T02:16:32.121Z,82.00
2023-05-08T02:19:01.999Z,82.04
2023-05-08T02:21:32.092Z,82.08
2023-05-08T02:24:01.428Z,82.12
2023-05-08T02:26:30.519Z,82.05
2023-05-08T02:28:59.003Z,81.83
2023-05-08T02:31:29.618Z,81.48
2023-05-08T02:33:59.896Z,81.15
2023-05-08T02:36:29.123Z,80.94
2023-05-08T02:38:59.385Z,80.74
2023-05-08T02:41:32.592Z,80.85
2023-05-08T02:44:01.790Z,80.88
2023-05-08T02:46:49.560Z,80.98
2023-05-08T02:49:26.833Z,80.93
2023-05-08T02:52:00.893Z,81.19
2023-05-08T02:54:44.413Z,81.47
2023-05-08T02:57:31.135Z,81.62
2023-05-08T03:00:11.607Z,81.96
2023-05-08T03:02:44.054Z,82.04
2023-05-08T03:05:33.844Z,81.95
2023-05-08T03:08:14.636Z,81.96
2023-05-08T03:10:46.084Z,81.83
2023-05-08T03:13:16.433Z,82.06
2023-05-08T03:15:52.232Z,82.25
2023-05-08T03:18:25.057Z,82.22
2023-05-08T03:20:56.444Z,81.87
2023-05-08T03:23:28.351Z,81.95
2023-05-08T03:25:59.072Z,81.57
2023-05-08T03:28:29.310Z,81.47
2023-05-08T03:31:01.181Z,81.33
2023-05-08T03:33:31.276Z,80.89
2023-05-08T03:35:59.960Z,81.01
2023-05-08T03:38:28.344Z,81.07
2023-05-08T03:40:56.622Z,80.83
2023-05-08T03:43:25.864Z,80.83
2023-05-08T03:45:56.002Z,80.79
2023-05-08T03:48:25.440Z,80.73
2023-05-08T03:50:56.277Z,80.84
2023-05-08T03:53:24.761Z,80.62
2023-05-08T03:55:53.043Z,80.80
2023-05-08T03:58:28.919Z,80.83
2023-05-08T04:01:36.817Z,80.86
2023-05-08T04:04:11.243Z,80.92
2023-05-08T04:07:14.207Z,81.00
2023-05-08T04:09:58.312Z,81.01
2023-05-08T04:12:45.515Z,81.05
2023-05-08T04:15:20.826Z,81.01
2023-05-08T04:18:15.212Z,81.06
2023-05-08T04:20:48.028Z,81.16
2023-05-08T04:23:20.884Z,81.09
2023-05-08T04:25:53.060Z,81.05
2023-05-08T04:28:22.567Z,81.13
2023-05-08T04:30:52.169Z,81.01
2023-05-08T04:33:20.234Z,81.09
2023-05-08T04:35:49.077Z,80.99
2023-05-08T04:38:17.137Z,81.02
2023-05-08T04:40:45.891Z,80.99
2023-05-08T04:43:14.063Z,80.90
2023-05-08T04:45:42.229Z,81.01
2023-05-08T04:48:10.444Z,80.93
2023-05-08T04:50:38.812Z,80.82
2023-05-08T04:53:07.061Z,80.68
2023-05-08T04:55:35.667Z,80.63
2023-05-08T04:58:04.108Z,80.69
2023-05-08T05:00:32.097Z,80.49
2023-05-08T05:03:00.383Z,80.23
2023-05-08T05:05:28.613Z,80.33
2023-05-08T05:07:56.816Z,80.37
2023-05-08T05:10:25.908Z,80.32
2023-05-08T05:12:54.275Z,80.37
2023-05-08T05:15:23.097Z,80.32
2023-05-08T05:17:51.389Z,80.38
2023-05-08T05:20:19.733Z,80.27
2023-05-08T05:22:48.112Z,80.15
2023-05-08T05:25:16.491Z,80.01
2023-05-08T05:27:44.762Z,79.80
2023-05-08T05:30:13.631Z,79.78
2023-05-08T05:32:42.589Z,79.70
2023-05-08T05:35:11.796Z,79.48
2023-05-08T05:37:40.108Z,79.38
2023-05-08T05:40:09.127Z,79.20
2023-05-08T05:42:37.627Z,79.20
2023-05-08T05:45:06.634Z,79.08
2023-05-08T05:47:35.205Z,78.91
2023-05-08T05:50:04.617Z,78.86
2023-05-08T05:52:33.336Z,78.90
2023-05-08T05:55:02.036Z,78.97
2023-05-08T05:57:30.200Z,79.17
2023-05-08T05:59:59.865Z,78.83
2023-05-08T06:02:28.451Z,78.91
2023-05-08T06:04:57.203Z,78.97
2023-05-08T06:07:25.184Z,78.89
2023-05-08T06:09:53.224Z,78.94
2023-05-08T06:12:21.325Z,79.09
2023-05-08T06:14:51.956Z,79.34
2023-05-08T06:17:20.769Z,79.45
2023-05-08T06:19:50.675Z,79.41
2023-05-08T06:22:19.640Z,79.50
2023-05-08T06:24:47.593Z,79.64
2023-05-08T06:27:15.893Z,79.43
2023-05-08T06:29:44.070Z,79.43
2023-05-08T06:32:12.047Z,79.77
2023-05-08T06:34:40.129Z,80.09
2023-05-08T06:37:08.074Z,80.23
2023-05-08T06:39:36.202Z,80.17
2023-05-08T06:42:08.346Z,80.19
2023-05-08T06:44:39.390Z,80.39
2023-05-08T06:47:08.580Z,80.48
2023-05-08T06:49:37.235Z,80.38
2023-05-08T06:52:05.513Z,80.51
2023-05-08T06:54:33.586Z,80.63
2023-05-08T06:57:01.662Z,80.88
2023-05-08T06:59:29.729Z,80.75
2023-05-08T07:01:58.778Z,80.74
2023-05-08T07:04:27.225Z,80.85
2023-05-08T07:06:55.377Z,80.75
2023-05-08T07:09:23.450Z,80.68
2023-05-08T07:11:51.623Z,80.66
2023-05-08T07:14:19.593Z,80.63
2023-05-08T07:16:47.566Z,80.79
2023-05-08T07:19:15.635Z,81.12
2023-05-08T07:21:46.214Z,81.13
2023-05-08T07:24:14.447Z,81.25
2023-05-08T07:26:42.928Z,81.32
2023-05-08T07:29:10.858Z,81.34
2023-05-08T07:31:42.001Z,81.45
2023-05-08T07:34:10.070Z,81.68
2023-05-08T07:36:38.800Z,81.70
2023-05-08T07:39:06.759Z,81.70
2023-05-08T07:41:36.211Z,81.79
2023-05-08T07:44:04.343Z,81.78
2023-05-08T07:46:32.324Z,81.62
2023-05-08T07:49:00.924Z,81.57
2023-05-08T07:51:29.080Z,81.47
2023-05-08T07:53:57.132Z,81.15
2023-05-08T07:56:25.416Z,81.39
2023-05-08T07:58:53.785Z,81.11
2023-05-08T08:01:21.767Z,80.43
2023-05-08T08:03:49.913Z,80.36
2023-05-08T08:06:18.668Z,80.49
2023-05-08T08:08:46.786Z,80.11
2023-05-08T08:11:14.761Z,79.86
2023-05-08T08:13:42.724Z,79.58
2023-05-08T08:16:10.904Z,79.34
2023-05-08T08:18:38.874Z,79.10
2023-05-08T08:21:07.726Z,79.18
2023-05-08T08:23:36.129Z,79.38
2023-05-08T08:26:04.230Z,79.71
2023-05-08T08:28:32.285Z,79.97
2023-05-08T08:31:00.409Z,79.90
2023-05-08T08:33:29.841Z,80.31
2023-05-08T08:35:57.929Z,80.23
2023-05-08T08:38:26.107Z,80.18
2023-05-08T08:40:54.492Z,79.97
2023-05-08T08:43:22.661Z,80.18
2023-05-08T08:45:50.655Z,80.14
2023-05-08T08:48:20.342Z,80.02
2023-05-08T08:50:53.638Z,79.46
2023-05-08T08:53:27.402Z,78.86
2023-05-08T08:55:58.788Z,78.44
2023-05-08T08:58:39.207Z,78.47
2023-05-08T09:01:09.213Z,78.64
2023-05-08T09:03:37.938Z,77.49
2023-05-08T09:06:07.854Z,77.42
2023-05-08T09:08:36.351Z,77.65
2023-05-08T09:11:04.405Z,77.29
2023-05-08T09:13:32.456Z,77.12
2023-05-08T09:16:01.242Z,76.65
2023-05-08T09:18:29.451Z,76.22
2023-05-08T09:20:58.344Z,75.04
2023-05-08T09:23:26.528Z,74.46
2023-05-08T09:25:54.610Z,74.44
2023-05-08T09:28:25.257Z,73.85
2023-05-08T09:30:57.066Z,73.53
2023-05-08T09:33:27.694Z,72.42
2023-05-08T09:35:57.068Z,72.88
2023-05-08T09:38:37.359Z,72.17
2023-05-08T09:41:16.462Z,71.87
2023-05-08T09:43:59.831Z,70.20
2023-05-08T09:46:28.284Z,71.00
2023-05-08T09:48:58.657Z,70.92
2023-05-08T09:51:29.269Z,69.55
2023-05-08T09:53:59.574Z,68.52
2023-05-08T09:56:37.982Z,67.91
2023-05-08T09:59:34.460Z,66.82
2023-05-08T10:02:10.733Z,67.26
2023-05-08T10:04:38.797Z,66.77
2023-05-08T10:07:07.071Z,65.59
2023-05-08T10:09:46.933Z,63.93
2023-05-08T10:12:18.837Z,64.38
2023-05-08T10:14:47.124Z,64.09
2023-05-08T10:17:21.572Z,62.96
2023-05-08T10:19:55.797Z,62.78
2023-05-08T10:22:25.498Z,61.35
2023-05-08T10:24:57.808Z,62.54
2023-05-08T10:27:41.609Z,62.44
2023-05-08T10:30:10.228Z,61.82
2023-05-08T10:32:43.291Z,61.81
2023-05-08T10:35:12.463Z,61.45
2023-05-08T10:37:42.568Z,60.51
2023-05-08T10:40:12.005Z,60.96
2023-05-08T10:42:41.067Z,60.39
2023-05-08T10:45:11.670Z,60.32
2023-05-08T10:48:03.811Z,58.91
2023-05-08T10:50:46.374Z,58.06
2023-05-08T10:53:14.384Z,59.18
2023-05-08T10:55:46.248Z,59.26
2023-05-08T10:58:28.537Z,59.52
2023-05-08T11:01:07.873Z,57.16
2023-05-08T11:03:42.672Z,57.13
2023-05-08T11:06:11.567Z,58.25
2023-05-08T11:08:48.764Z,59.24
2023-05-08T11:11:38.321Z,58.72
2023-05-08T11:14:08.998Z,59.17
2023-05-08T11:16:56.685Z,58.65
2023-05-08T11:19:26.343Z,59.90
2023-05-08T11:22:15.131Z,59.96
2023-05-08T11:24:54.596Z,60.32
2023-05-08T11:27:33.461Z,60.76
2023-05-08T11:30:32.955Z,61.50
2023-05-08T11:33:04.531Z,62.74
2023-05-08T11:35:46.366Z,63.19
2023-05-08T11:38:27.972Z,63.61
2023-05-08T11:41:06.137Z,64.15
2023-05-08T11:43:34.386Z,64.30
2023-05-08T11:46:04.572Z,64.40
2023-05-08T11:48:33.569Z,64.32
2023-05-08T11:51:02.877Z,64.87
2023-05-08T11:53:32.650Z,65.53
2023-05-08T11:56:00.872Z,65.38
2023-05-08T11:58:29.568Z,65.68
2023-05-08T12:00:58.202Z,66.60
2023-05-08T12:03:26.796Z,67.37
2023-05-08T12:05:59.670Z,67.80
2023-05-08T12:08:27.883Z,68.04
2023-05-08T12:10:57.482Z,68.48
2023-05-08T12:13:29.807Z,68.87
2023-05-08T12:16:00.513Z,69.70
2023-05-08T12:18:30.626Z,70.04
2023-05-08T12:21:01.174Z,70.58
2023-05-08T12:23:29.918Z,70.33
2023-05-08T12:26:01.745Z,70.10
2023-05-08T12:28:32.485Z,70.06
2023-05-08T12:31:00.923Z,69.91
2023-05-08T12:33:30.491Z,69.57
2023-05-08T12:35:59.384Z,69.65
2023-05-08T12:38:28.041Z,68.92
2023-05-08T12:40:56.243Z,68.28
2023-05-08T12:43:35.030Z,67.57
2023-05-08T12:46:04.745Z,67.62
2023-05-08T12:48:33.049Z,68.00
2023-05-08T12:51:05.029Z,68.28
2023-05-08T12:53:33.594Z,68.91
2023-05-08T12:56:04.281Z,68.70
2023-05-08T12:58:33.637Z,68.49
2023-05-08T13:01:06.319Z,68.90
2023-05-08T13:03:34.499Z,69.39
2023-05-08T13:06:02.661Z,69.15
2023-05-08T13:08:38.520Z,68.58
2023-05-08T13:11:07.109Z,69.16
2023-05-08T13:13:36.938Z,69.20
2023-05-08T13:16:06.782Z,69.13
2023-05-08T13:18:37.018Z,68.28
2023-05-08T13:21:05.988Z,68.67
2023-05-08T13:23:34.126Z,68.59
2023-05-08T13:26:02.875Z,68.42
2023-05-08T13:28:30.799Z,68.89
2023-05-08T13:30:58.931Z,68.86
2023-05-08T13:33:27.013Z,68.16
2023-05-08T13:35:55.394Z,68.51
2023-05-08T13:38:23.565Z,67.97
2023-05-08T13:40:52.362Z,67.85
2023-05-08T13:43:20.425Z,67.60
2023-05-08T13:45:48.423Z,67.28
2023-05-08T13:48:16.409Z,67.56
2023-05-08T13:50:44.385Z,67.28
2023-05-08T13:53:12.347Z,67.36
2023-05-08T13:55:40.781Z,67.06
2023-05-08T13:58:08.807Z,67.25
2023-05-08T14:00:36.926Z,67.05
2023-05-08T14:03:05.032Z,67.09
2023-05-08T14:05:34.911Z,67.54
2023-05-08T14:08:03.007Z,67.63
2023-05-08T14:10:30.924Z,68.22
2023-05-08T14:12:59.184Z,68.56
2023-05-08T14:15:34.810Z,68.39
2023-05-08T14:18:05.963Z,68.21
2023-05-08T14:20:34.158Z,67.88
2023-05-08T14:23:02.595Z,68.01
2023-05-08T14:25:31.368Z,68.10
2023-05-08T14:27:59.863Z,68.10
2023-05-08T14:30:27.857Z,68.08
2023-05-08T14:32:55.933Z,68.57
2023-05-08T14:35:24.202Z,68.34
2023-05-08T14:37:52.144Z,68.66
2023-05-08T14:40:20.969Z,68.63
2023-05-08T14:42:50.118Z,68.88
2023-05-08T14:45:18.384Z,68.96
2023-05-08T14:47:46.723Z,69.28
2023-05-08T14:50:14.747Z,69.50
2023-05-08T14:52:42.716Z,69.61
2023-05-08T14:55:11.174Z,69.59
2023-05-08T14:57:39.467Z,69.84
2023-05-08T15:00:08.562Z,70.02
2023-05-08T15:02:36.517Z,70.21
2023-05-08T15:05:10.821Z,70.22
2023-05-08T15:07:42.391Z,70.39
2023-05-08T15:10:10.992Z,70.01
2023-05-08T15:12:39.004Z,69.77
2023-05-08T15:15:08.159Z,69.36
2023-05-08T15:17:36.768Z,69.67
2023-05-08T15:20:06.207Z,69.54
2023-05-08T15:22:34.424Z,69.68
2023-05-08T15:25:02.901Z,70.14
2023-05-08T15:27:31.751Z,70.36
2023-05-08T15:29:59.726Z,70.86
2023-05-08T15:32:27.868Z,70.53
2023-05-08T15:34:56.531Z,70.05
2023-05-08T15:37:24.689Z,70.26
2023-05-08T15:39:52.763Z,70.30
2023-05-08T15:42:20.866Z,70.73
2023-05-08T15:47:19.845Z,70.66
2023-05-08T15:49:47.920Z,70.42
2023-05-08T15:52:18.666Z,70.48
2023-05-08T15:54:50.298Z,70.61
2023-05-08T15:57:18.378Z,70.70
2023-05-08T15:59:46.761Z,70.90
2023-05-08T16:02:14.860Z,71.25
2023-05-08T16:04:43.043Z,71.37
2023-05-08T16:07:10.981Z,71.37
2023-05-08T16:09:39.073Z,71.50
2023-05-08T16:12:07.216Z,71.53
2023-05-08T16:14:36.535Z,71.68
2023-05-08T16:17:04.806Z,71.48
2023-05-08T16:19:37.686Z,71.45
2023-05-08T16:22:07.291Z,71.15
2023-05-08T16:24:35.464Z,70.75
2023-05-08T16:27:03.499Z,70.22
2023-05-08T16:29:31.717Z,70.23
2023-05-08T16:31:59.899Z,70.31
2023-05-08T16:34:27.854Z,70.32
2023-05-08T16:36:55.937Z,70.20
2023-05-08T16:39:23.843Z,69.69
2023-05-08T16:41:51.793Z,69.87
2023-05-08T16:44:19.746Z,70.13
2023-05-08T16:46:47.827Z,70.41
2023-05-08T16:49:15.898Z,70.41
2023-05-08T16:51:43.990Z,70.37
2023-05-08T16:54:12.025Z,70.45
2023-05-08T16:56:40.087Z,70.96
2023-05-08T16:59:08.159Z,71.03
2023-05-08T17:01:36.214Z,71.08
2023-05-08T17:04:04.225Z,71.00
2023-05-08T17:06:33.034Z,71.05
2023-05-08T17:09:01.059Z,70.61
2023-05-08T17:11:29.130Z,70.67
2023-05-08T17:13:57.308Z,70.66
2023-05-08T17:16:25.272Z,70.92
2023-05-08T17:18:53.553Z,70.88
2023-05-08T17:21:21.736Z,70.69
2023-05-08T17:23:49.810Z,70.87
2023-05-08T17:26:17.778Z,71.18
2023-05-08T17:28:45.742Z,71.36
2023-05-08T17:31:15.664Z,71.36
2023-05-08T17:33:43.718Z,71.13
2023-05-08T17:36:11.832Z,71.33
2023-05-08T17:38:45.821Z,72.00
2023-05-08T17:41:14.218Z,72.05
2023-05-08T17:43:42.252Z,72.22
2023-05-08T17:46:10.671Z,71.87
2023-05-08T17:48:38.739Z,71.95
2023-05-08T17:51:06.857Z,71.73
2023-05-08T17:53:34.859Z,71.73
2023-05-08T17:56:02.816Z,71.84
2023-05-08T17:58:30.889Z,72.17
2023-05-08T18:00:59.180Z,72.41
2023-05-08T18:03:27.553Z,72.59
2023-05-08T18:05:55.615Z,72.73
2023-05-08T18:08:23.685Z,72.68
2023-05-08T18:10:51.756Z,72.79
2023-05-08T18:13:19.841Z,72.82
2023-05-08T18:15:48.273Z,72.81
2023-05-08T18:18:16.380Z,72.74
2023-05-08T18:20:44.456Z,72.74
2023-05-08T18:23:12.433Z,72.75
2023-05-08T18:25:40.426Z,72.77
2023-05-08T18:28:08.365Z,72.96
2023-05-08T18:30:38.386Z,72.97
2023-05-08T18:33:06.831Z,73.09
2023-05-08T18:35:34.828Z,73.31
2023-05-08T18:38:02.800Z,73.47
2023-05-08T18:40:30.809Z,73.63
2023-05-08T18:42:58.943Z,73.77
2023-05-08T18:45:26.951Z,73.81
2023-05-08T18:47:57.552Z,73.92
2023-05-08T18:50:25.664Z,74.09
2023-05-08T18:52:53.900Z,74.49
2023-05-08T18:55:22.854Z,74.69
2023-05-08T18:57:51.671Z,74.87
2023-05-08T19:00:20.326Z,74.91
2023-05-08T19:02:48.532Z,75.21
2023-05-08T19:05:16.629Z,75.17
2023-05-08T19:07:45.598Z,75.01
2023-05-08T19:10:13.826Z,75.17
2023-05-08T19:12:42.469Z,75.33
2023-05-08T19:15:13.876Z,75.45
2023-05-08T19:17:42.222Z,75.73
2023-05-08T19:20:11.372Z,75.91
2023-05-08T19:22:39.537Z,75.79
2023-05-08T19:25:08.243Z,75.79
2023-05-08T19:27:36.181Z,75.84
2023-05-08T19:30:05.425Z,75.74
2023-05-08T19:32:33.352Z,76.15
2023-05-08T19:35:02.780Z,76.10
2023-05-08T19:37:31.566Z,76.46
2023-05-08T19:39:59.521Z,76.37
2023-05-08T19:42:27.546Z,76.43
2023-05-08T19:44:55.543Z,76.37
2023-05-08T19:47:23.515Z,76.28
2023-05-08T19:49:51.693Z,76.26
2023-05-08T19:52:20.303Z,76.62
2023-05-08T19:54:48.488Z,76.60
2023-05-08T19:57:16.651Z,77.05
2023-05-08T19:59:44.537Z,77.36
2023-05-08T20:02:12.591Z,77.44
2023-05-08T20:07:11.741Z,77.50
2023-05-08T20:09:39.799Z,77.88
2023-05-08T20:12:07.849Z,77.75
2023-05-08T20:14:35.759Z,77.96
2023-05-08T20:17:03.889Z,77.80
2023-05-08T20:19:31.902Z,78.01
2023-05-08T20:22:01.361Z,78.07
2023-05-08T20:24:29.295Z,78.38
2023-05-08T20:26:57.606Z,78.25
2023-05-08T20:29:26.600Z,78.32
2023-05-08T20:31:54.732Z,78.49
2023-05-08T20:34:22.749Z,78.32
2023-05-08T20:36:50.714Z,78.68
2023-05-08T20:39:18.889Z,78.64
2023-05-08T20:41:46.857Z,78.66
2023-05-08T20:44:17.893Z,78.95
2023-05-08T20:46:46.282Z,78.98
2023-05-08T20:49:14.654Z,78.90
2023-05-08T20:51:43.245Z,78.74
2023-05-08T20:54:11.322Z,78.90
2023-05-08T20:56:39.281Z,78.87
2023-05-08T20:59:07.871Z,79.03
2023-05-08T21:01:35.960Z,79.13
2023-05-08T21:04:03.990Z,79.38
2023-05-08T21:06:32.200Z,79.44
2023-05-08T21:09:00.355Z,79.82
2023-05-08T21:11:28.378Z,79.85
2023-05-08T21:13:56.614Z,79.94
2023-05-08T21:16:26.770Z,80.11
2023-05-08T21:18:57.514Z,80.00
2023-05-08T21:21:26.561Z,80.00
2023-05-08T21:23:54.635Z,79.94
2023-05-08T21:26:23.885Z,80.12
2023-05-08T21:28:53.696Z,80.18
2023-05-08T21:31:21.946Z,80.57
2023-05-08T21:33:50.012Z,80.58
2023-05-08T21:36:18.172Z,80.90
2023-05-08T21:38:46.118Z,80.85
2023-05-08T21:41:14.290Z,80.69
2023-05-08T21:43:42.405Z,80.52
2023-05-08T21:46:10.492Z,80.81
2023-05-08T21:48:38.564Z,80.88
2023-05-08T21:51:07.016Z,81.04
2023-05-08T21:53:35.338Z,80.97
2023-05-08T21:56:03.549Z,81.25
2023-05-08T21:58:31.694Z,81.22
2023-05-08T22:01:00.052Z,81.18
2023-05-08T22:03:28.281Z,81.46
2023-05-08T22:05:56.757Z,81.47
2023-05-08T22:08:24.706Z,81.71
2023-05-08T22:10:52.696Z,81.39
2023-05-08T22:13:20.817Z,81.81
2023-05-08T22:15:48.959Z,82.06
2023-05-08T22:18:17.629Z,82.15
2023-05-08T22:20:45.597Z,82.20
2023-05-08T22:23:13.530Z,82.39
2023-05-08T22:25:41.637Z,82.71
2023-05-08T22:28:09.634Z,82.74
2023-05-08T22:30:37.812Z,82.97
2023-05-08T22:33:06.084Z,83.01
2023-05-08T22:35:34.538Z,83.48
2023-05-08T22:38:02.589Z,83.59
2023-05-08T22:40:30.790Z,83.94
2023-05-08T22:42:59.165Z,83.93
2023-05-08T22:45:27.799Z,84.02
2023-05-08T22:47:55.987Z,84.32
2023-05-08T22:50:24.196Z,84.33
2023-05-08T22:52:52.232Z,84.59
2023-05-08T22:55:20.329Z,84.53
2023-05-08T22:57:48.453Z,84.71
2023-05-08T23:00:16.801Z,84.70
2023-05-08T23:02:45.076Z,84.53
2023-05-08T23:05:14.135Z,84.58
2023-05-08T23:07:42.283Z,84.78
2023-05-08T23:10:11.019Z,84.93
2023-05-08T23:12:39.094Z,84.75
2023-05-08T23:15:07.757Z,85.01
2023-05-08T23:17:35.839Z,85.07
2023-05-08T23:20:05.058Z,84.99
2023-05-08T23:22:33.221Z,85.23
2023-05-08T23:25:01.154Z,85.10
2023-05-08T23:27:29.167Z,85.18
2023-05-08T23:29:57.329Z,85.21
2023-05-08T23:32:25.460Z,85.48
2023-05-08T23:34:53.731Z,85.36
2023-05-08T23:37:21.752Z,85.55
2023-05-08T23:39:49.841Z,85.53
2023-05-08T23:42:17.803Z,85.82
2023-05-08T23:44:45.717Z,85.80
2023-05-08T23:47:13.818Z,86.08
2023-05-08T23:49:41.806Z,86.04
2023-05-08T23:52:10.284Z,86.05
2023-05-08T23:54:38.256Z,86.14
2023-05-08T23:57:06.665Z,86.29
2023-05-08T23:59:34.709Z,86.44
